sensor_id;sensor_type;location;lat;lon;timestamp;P1;durP1;ratioP1;P2;durP2;ratioP2
41546;SDS011;27271;45.412;10.852;2023-02-28T00:01:38;9.57;;;4.80;;
41546;SDS011;27271;45.412;10.852;2023-02-28T00:05:01;12.68;;;6.18;;
41546;SDS011;27271;45.412;10.852;2023-02-28T00:08:24;10.60;;;4.65;;
41546;SDS011;27271;45.412;10.852;2023-02-28T00:11:46;10.77;;;4.85;;
41546;SDS011;27271;45.412;10.852;2023-02-28T00:15:09;8.50;;;3.97;;
41546;SDS011;27271;45.412;10.852;2023-02-28T00:18:32;9.85;;;5.00;;
41546;SDS011;27271;45.412;10.852;2023-02-28T00:21:54;8.63;;;4.22;;
41546;SDS011;27271;45.412;10.852;2023-02-28T00:25:17;12.45;;;4.85;;
41546;SDS011;27271;45.412;10.852;2023-02-28T00:28:41;8.38;;;4.10;;
41546;SDS011;27271;45.412;10.852;2023-02-28T00:32:03;8.95;;;4.13;;
41546;SDS011;27271;45.412;10.852;2023-02-28T00:35:26;9.80;;;3.75;;
41546;SDS011;27271;45.412;10.852;2023-02-28T00:38:48;6.43;;;3.35;;
41546;SDS011;27271;45.412;10.852;2023-02-28T00:42:10;6.97;;;2.92;;
41546;SDS011;27271;45.412;10.852;2023-02-28T00:45:32;6.15;;;3.38;;
41546;SDS011;27271;45.412;10.852;2023-02-28T00:48:54;7.22;;;3.75;;
41546;SDS011;27271;45.412;10.852;2023-02-28T00:52:16;7.13;;;3.78;;
41546;SDS011;27271;45.412;10.852;2023-02-28T00:55:38;6.88;;;3.38;;
41546;SDS011;27271;45.412;10.852;2023-02-28T00:59:00;6.68;;;3.08;;
41546;SDS011;27271;45.412;10.852;2023-02-28T01:02:27;6.30;;;3.55;;
41546;SDS011;27271;45.412;10.852;2023-02-28T01:05:53;5.47;;;2.70;;
41546;SDS011;27271;45.412;10.852;2023-02-28T01:09:15;7.72;;;3.35;;
41546;SDS011;27271;45.412;10.852;2023-02-28T01:12:37;7.88;;;3.75;;
41546;SDS011;27271;45.412;10.852;2023-02-28T01:16:01;8.85;;;3.65;;
41546;SDS011;27271;45.412;10.852;2023-02-28T01:19:24;8.48;;;3.70;;
41546;SDS011;27271;45.412;10.852;2023-02-28T01:22:46;10.70;;;4.10;;
41546;SDS011;27271;45.412;10.852;2023-02-28T01:26:09;6.95;;;3.47;;
41546;SDS011;27271;45.412;10.852;2023-02-28T01:29:36;6.50;;;3.13;;
41546;SDS011;27271;45.412;10.852;2023-02-28T01:32:58;5.72;;;3.40;;
41546;SDS011;27271;45.412;10.852;2023-02-28T01:36:22;6.43;;;3.22;;
41546;SDS011;27271;45.412;10.852;2023-02-28T01:39:45;5.45;;;3.47;;
41546;SDS011;27271;45.412;10.852;2023-02-28T01:43:12;6.55;;;3.75;;
41546;SDS011;27271;45.412;10.852;2023-02-28T01:46:44;8.00;;;3.95;;
41546;SDS011;27271;45.412;10.852;2023-02-28T01:50:09;6.25;;;3.63;;
41546;SDS011;27271;45.412;10.852;2023-02-28T01:53:37;6.43;;;3.70;;
41546;SDS011;27271;45.412;10.852;2023-02-28T01:57:05;7.78;;;3.97;;
41546;SDS011;27271;45.412;10.852;2023-02-28T02:00:31;6.38;;;3.20;;
41546;SDS011;27271;45.412;10.852;2023-02-28T02:03:54;5.43;;;3.75;;
41546;SDS011;27271;45.412;10.852;2023-02-28T02:07:19;4.75;;;3.10;;
41546;SDS011;27271;45.412;10.852;2023-02-28T02:10:43;8.50;;;4.25;;
41546;SDS011;27271;45.412;10.852;2023-02-28T02:14:30;7.60;;;3.78;;
41546;SDS011;27271;45.412;10.852;2023-02-28T02:18:37;6.38;;;3.60;;
41546;SDS011;27271;45.412;10.852;2023-02-28T02:26:04;5.43;;;3.22;;
41546;SDS011;27271;45.412;10.852;2023-02-28T02:29:48;6.43;;;3.55;;
41546;SDS011;27271;45.412;10.852;2023-02-28T02:44:35;4.13;;;3.08;;
41546;SDS011;27271;45.412;10.852;2023-02-28T02:48:26;9.13;;;3.30;;
41546;SDS011;27271;45.412;10.852;2023-02-28T02:51:51;8.63;;;3.55;;
41546;SDS011;27271;45.412;10.852;2023-02-28T02:55:16;6.75;;;3.42;;
41546;SDS011;27271;45.412;10.852;2023-02-28T02:58:41;5.50;;;3.10;;
41546;SDS011;27271;45.412;10.852;2023-02-28T03:02:06;9.13;;;3.50;;
41546;SDS011;27271;45.412;10.852;2023-02-28T03:05:34;7.43;;;3.35;;
41546;SDS011;27271;45.412;10.852;2023-02-28T03:09:03;8.40;;;3.30;;
41546;SDS011;27271;45.412;10.852;2023-02-28T03:12:34;6.93;;;3.35;;
41546;SDS011;27271;45.412;10.852;2023-02-28T03:16:23;10.15;;;3.80;;
41546;SDS011;27271;45.412;10.852;2023-02-28T03:20:04;5.28;;;3.05;;
41546;SDS011;27271;45.412;10.852;2023-02-28T03:23:42;7.25;;;4.00;;
41546;SDS011;27271;45.412;10.852;2023-02-28T03:31:22;7.85;;;4.03;;
41546;SDS011;27271;45.412;10.852;2023-02-28T03:35:01;6.07;;;3.13;;
41546;SDS011;27271;45.412;10.852;2023-02-28T03:38:33;7.80;;;3.70;;
41546;SDS011;27271;45.412;10.852;2023-02-28T03:42:01;7.95;;;4.05;;
41546;SDS011;27271;45.412;10.852;2023-02-28T03:45:37;8.63;;;4.13;;
41546;SDS011;27271;45.412;10.852;2023-02-28T03:49:02;8.25;;;3.55;;
41546;SDS011;27271;45.412;10.852;2023-02-28T03:52:31;5.70;;;3.38;;
41546;SDS011;27271;45.412;10.852;2023-02-28T03:56:45;6.20;;;3.58;;
41546;SDS011;27271;45.412;10.852;2023-02-28T03:59:43;7.25;;;3.90;;
41546;SDS011;27271;45.412;10.852;2023-02-28T04:03:09;4.90;;;3.00;;
41546;SDS011;27271;45.412;10.852;2023-02-28T04:06:31;7.90;;;3.97;;
41546;SDS011;27271;45.412;10.852;2023-02-28T04:09:54;9.73;;;3.55;;
41546;SDS011;27271;45.412;10.852;2023-02-28T04:13:17;7.80;;;3.55;;
41546;SDS011;27271;45.412;10.852;2023-02-28T04:16:40;9.30;;;3.88;;
41546;SDS011;27271;45.412;10.852;2023-02-28T04:20:03;9.18;;;3.92;;
41546;SDS011;27271;45.412;10.852;2023-02-28T04:23:31;8.02;;;4.13;;
41546;SDS011;27271;45.412;10.852;2023-02-28T04:26:53;6.30;;;3.47;;
41546;SDS011;27271;45.412;10.852;2023-02-28T04:30:16;7.78;;;4.63;;
41546;SDS011;27271;45.412;10.852;2023-02-28T04:33:39;7.70;;;4.15;;
41546;SDS011;27271;45.412;10.852;2023-02-28T04:37:01;9.68;;;3.80;;
41546;SDS011;27271;45.412;10.852;2023-02-28T04:40:35;12.07;;;4.72;;
41546;SDS011;27271;45.412;10.852;2023-02-28T04:43:57;7.25;;;3.72;;
41546;SDS011;27271;45.412;10.852;2023-02-28T04:47:19;6.53;;;3.22;;
41546;SDS011;27271;45.412;10.852;2023-02-28T04:50:41;7.47;;;3.63;;
41546;SDS011;27271;45.412;10.852;2023-02-28T04:54:03;7.80;;;3.78;;
41546;SDS011;27271;45.412;10.852;2023-02-28T04:57:25;8.70;;;4.15;;
41546;SDS011;27271;45.412;10.852;2023-02-28T05:00:47;6.40;;;3.72;;
41546;SDS011;27271;45.412;10.852;2023-02-28T05:04:09;8.52;;;4.20;;
41546;SDS011;27271;45.412;10.852;2023-02-28T05:07:31;7.50;;;3.85;;
41546;SDS011;27271;45.412;10.852;2023-02-28T05:10:53;7.60;;;3.90;;
41546;SDS011;27271;45.412;10.852;2023-02-28T05:14:15;5.90;;;3.08;;
41546;SDS011;27271;45.412;10.852;2023-02-28T05:17:37;5.78;;;3.25;;
41546;SDS011;27271;45.412;10.852;2023-02-28T05:20:59;6.38;;;3.50;;
41546;SDS011;27271;45.412;10.852;2023-02-28T05:24:23;8.27;;;3.65;;
41546;SDS011;27271;45.412;10.852;2023-02-28T05:27:46;9.98;;;3.88;;
41546;SDS011;27271;45.412;10.852;2023-02-28T05:31:10;9.85;;;5.00;;
41546;SDS011;27271;45.412;10.852;2023-02-28T05:34:32;10.80;;;4.53;;
41546;SDS011;27271;45.412;10.852;2023-02-28T05:37:54;6.80;;;3.88;;
41546;SDS011;27271;45.412;10.852;2023-02-28T05:41:17;8.60;;;4.38;;
41546;SDS011;27271;45.412;10.852;2023-02-28T05:44:40;11.05;;;4.03;;
41546;SDS011;27271;45.412;10.852;2023-02-28T05:48:03;10.90;;;3.97;;
41546;SDS011;27271;45.412;10.852;2023-02-28T05:51:26;8.15;;;3.72;;
41546;SDS011;27271;45.412;10.852;2023-02-28T05:54:48;9.18;;;3.92;;
41546;SDS011;27271;45.412;10.852;2023-02-28T05:58:10;9.48;;;4.10;;
41546;SDS011;27271;45.412;10.852;2023-02-28T06:01:34;7.25;;;3.30;;
41546;SDS011;27271;45.412;10.852;2023-02-28T06:05:14;7.55;;;3.88;;
41546;SDS011;27271;45.412;10.852;2023-02-28T06:08:37;6.32;;;3.50;;
41546;SDS011;27271;45.412;10.852;2023-02-28T06:12:00;7.20;;;4.03;;
41546;SDS011;27271;45.412;10.852;2023-02-28T06:15:25;7.60;;;3.97;;
41546;SDS011;27271;45.412;10.852;2023-02-28T06:18:47;7.57;;;3.72;;
41546;SDS011;27271;45.412;10.852;2023-02-28T06:22:09;8.52;;;3.33;;
41546;SDS011;27271;45.412;10.852;2023-02-28T06:25:31;7.15;;;3.40;;
41546;SDS011;27271;45.412;10.852;2023-02-28T06:28:53;10.48;;;4.55;;
41546;SDS011;27271;45.412;10.852;2023-02-28T06:32:16;10.45;;;3.30;;
41546;SDS011;27271;45.412;10.852;2023-02-28T06:35:38;7.22;;;3.50;;
41546;SDS011;27271;45.412;10.852;2023-02-28T06:39:00;6.38;;;3.95;;
41546;SDS011;27271;45.412;10.852;2023-02-28T06:42:23;7.60;;;3.92;;
41546;SDS011;27271;45.412;10.852;2023-02-28T06:45:50;8.68;;;3.55;;
41546;SDS011;27271;45.412;10.852;2023-02-28T06:49:12;9.52;;;4.07;;
41546;SDS011;27271;45.412;10.852;2023-02-28T06:52:34;7.60;;;3.70;;
41546;SDS011;27271;45.412;10.852;2023-02-28T06:55:58;10.73;;;5.22;;
41546;SDS011;27271;45.412;10.852;2023-02-28T06:59:20;11.75;;;4.32;;
41546;SDS011;27271;45.412;10.852;2023-02-28T07:02:42;9.32;;;4.15;;
41546;SDS011;27271;45.412;10.852;2023-02-28T07:06:05;9.15;;;3.58;;
41546;SDS011;27271;45.412;10.852;2023-02-28T07:09:27;6.72;;;3.92;;
41546;SDS011;27271;45.412;10.852;2023-02-28T07:12:51;8.95;;;4.40;;
41546;SDS011;27271;45.412;10.852;2023-02-28T07:16:13;11.75;;;5.05;;
41546;SDS011;27271;45.412;10.852;2023-02-28T07:19:35;13.25;;;5.68;;
41546;SDS011;27271;45.412;10.852;2023-02-28T07:22:57;9.05;;;5.00;;
41546;SDS011;27271;45.412;10.852;2023-02-28T07:26:19;10.10;;;3.60;;
41546;SDS011;27271;45.412;10.852;2023-02-28T07:29:42;7.00;;;3.88;;
41546;SDS011;27271;45.412;10.852;2023-02-28T07:33:04;6.93;;;3.70;;
41546;SDS011;27271;45.412;10.852;2023-02-28T07:36:26;8.38;;;3.75;;
41546;SDS011;27271;45.412;10.852;2023-02-28T07:39:48;10.68;;;3.90;;
41546;SDS011;27271;45.412;10.852;2023-02-28T07:43:10;8.57;;;3.92;;
41546;SDS011;27271;45.412;10.852;2023-02-28T07:46:35;8.90;;;3.90;;
41546;SDS011;27271;45.412;10.852;2023-02-28T07:49:58;7.43;;;4.07;;
41546;SDS011;27271;45.412;10.852;2023-02-28T07:53:20;7.47;;;4.20;;
41546;SDS011;27271;45.412;10.852;2023-02-28T07:56:42;7.75;;;4.15;;
41546;SDS011;27271;45.412;10.852;2023-02-28T08:00:04;7.03;;;4.38;;
41546;SDS011;27271;45.412;10.852;2023-02-28T08:03:34;10.32;;;4.53;;
41546;SDS011;27271;45.412;10.852;2023-02-28T08:06:57;8.73;;;4.40;;
41546;SDS011;27271;45.412;10.852;2023-02-28T08:10:20;7.20;;;3.90;;
41546;SDS011;27271;45.412;10.852;2023-02-28T08:13:42;8.32;;;3.60;;
41546;SDS011;27271;45.412;10.852;2023-02-28T08:17:05;6.78;;;3.95;;
41546;SDS011;27271;45.412;10.852;2023-02-28T08:20:28;8.20;;;4.10;;
41546;SDS011;27271;45.412;10.852;2023-02-28T08:23:51;8.20;;;4.60;;
41546;SDS011;27271;45.412;10.852;2023-02-28T08:27:13;7.95;;;4.10;;
41546;SDS011;27271;45.412;10.852;2023-02-28T08:30:35;8.25;;;4.45;;
41546;SDS011;27271;45.412;10.852;2023-02-28T08:33:58;6.80;;;3.88;;
41546;SDS011;27271;45.412;10.852;2023-02-28T08:37:20;6.38;;;3.78;;
41546;SDS011;27271;45.412;10.852;2023-02-28T08:40:42;6.85;;;4.30;;
41546;SDS011;27271;45.412;10.852;2023-02-28T08:44:04;7.85;;;3.97;;
41546;SDS011;27271;45.412;10.852;2023-02-28T08:47:26;8.63;;;4.72;;
41546;SDS011;27271;45.412;10.852;2023-02-28T08:50:58;9.93;;;4.07;;
41546;SDS011;27271;45.412;10.852;2023-02-28T08:54:28;7.13;;;3.83;;
41546;SDS011;27271;45.412;10.852;2023-02-28T08:57:53;8.38;;;4.15;;
41546;SDS011;27271;45.412;10.852;2023-02-28T09:01:17;9.05;;;4.90;;
41546;SDS011;27271;45.412;10.852;2023-02-28T09:04:41;7.80;;;4.32;;
41546;SDS011;27271;45.412;10.852;2023-02-28T09:08:03;8.68;;;5.05;;
41546;SDS011;27271;45.412;10.852;2023-02-28T09:11:25;8.32;;;4.57;;
41546;SDS011;27271;45.412;10.852;2023-02-28T09:14:50;10.27;;;4.70;;
41546;SDS011;27271;45.412;10.852;2023-02-28T09:18:13;10.15;;;4.15;;
41546;SDS011;27271;45.412;10.852;2023-02-28T09:21:35;9.18;;;4.25;;
41546;SDS011;27271;45.412;10.852;2023-02-28T09:24:57;9.13;;;4.22;;
41546;SDS011;27271;45.412;10.852;2023-02-28T09:28:20;12.43;;;4.55;;
41546;SDS011;27271;45.412;10.852;2023-02-28T09:31:43;9.85;;;4.40;;
41546;SDS011;27271;45.412;10.852;2023-02-28T09:35:05;9.13;;;4.47;;
41546;SDS011;27271;45.412;10.852;2023-02-28T09:38:28;7.05;;;4.32;;
41546;SDS011;27271;45.412;10.852;2023-02-28T09:41:50;7.15;;;4.85;;
41546;SDS011;27271;45.412;10.852;2023-02-28T09:45:24;8.07;;;5.00;;
41546;SDS011;27271;45.412;10.852;2023-02-28T09:48:53;12.48;;;5.40;;
41546;SDS011;27271;45.412;10.852;2023-02-28T09:52:18;8.65;;;4.63;;
41546;SDS011;27271;45.412;10.852;2023-02-28T09:55:50;7.90;;;4.20;;
41546;SDS011;27271;45.412;10.852;2023-02-28T10:07:01;7.50;;;4.32;;
41546;SDS011;27271;45.412;10.852;2023-02-28T10:10:28;8.32;;;4.97;;
41546;SDS011;27271;45.412;10.852;2023-02-28T10:14:01;8.18;;;4.30;;
41546;SDS011;27271;45.412;10.852;2023-02-28T10:17:32;9.57;;;4.50;;
41546;SDS011;27271;45.412;10.852;2023-02-28T10:21:35;13.70;;;5.65;;
41546;SDS011;27271;45.412;10.852;2023-02-28T10:25:04;8.77;;;4.15;;
41546;SDS011;27271;45.412;10.852;2023-02-28T10:28:39;8.73;;;4.53;;
41546;SDS011;27271;45.412;10.852;2023-02-28T10:32:02;9.52;;;4.68;;
41546;SDS011;27271;45.412;10.852;2023-02-28T10:35:26;7.78;;;4.70;;
41546;SDS011;27271;45.412;10.852;2023-02-28T10:38:48;9.82;;;5.13;;
41546;SDS011;27271;45.412;10.852;2023-02-28T10:42:28;10.63;;;4.93;;
41546;SDS011;27271;45.412;10.852;2023-02-28T10:49:36;9.20;;;4.65;;
41546;SDS011;27271;45.412;10.852;2023-02-28T10:53:17;10.27;;;4.88;;
41546;SDS011;27271;45.412;10.852;2023-02-28T10:57:06;8.93;;;4.68;;
41546;SDS011;27271;45.412;10.852;2023-02-28T11:00:34;7.55;;;4.78;;
41546;SDS011;27271;45.412;10.852;2023-02-28T11:03:57;10.57;;;5.28;;
41546;SDS011;27271;45.412;10.852;2023-02-28T11:07:21;12.88;;;5.78;;
41546;SDS011;27271;45.412;10.852;2023-02-28T11:11:05;10.07;;;5.25;;
41546;SDS011;27271;45.412;10.852;2023-02-28T11:14:29;8.50;;;4.72;;
41546;SDS011;27271;45.412;10.852;2023-02-28T11:18:00;9.60;;;4.78;;
41546;SDS011;27271;45.412;10.852;2023-02-28T11:21:51;10.55;;;5.05;;
41546;SDS011;27271;45.412;10.852;2023-02-28T11:25:21;10.20;;;4.85;;
41546;SDS011;27271;45.412;10.852;2023-02-28T11:28:50;9.38;;;5.18;;
41546;SDS011;27271;45.412;10.852;2023-02-28T11:32:47;9.50;;;5.60;;
41546;SDS011;27271;45.412;10.852;2023-02-28T11:36:17;8.88;;;5.82;;
41546;SDS011;27271;45.412;10.852;2023-02-28T11:39:42;10.65;;;5.93;;
41546;SDS011;27271;45.412;10.852;2023-02-28T11:43:51;10.45;;;5.45;;
41546;SDS011;27271;45.412;10.852;2023-02-28T11:50:57;10.27;;;6.18;;
41546;SDS011;27271;45.412;10.852;2023-02-28T11:54:43;12.15;;;4.75;;
41546;SDS011;27271;45.412;10.852;2023-02-28T12:05:40;10.85;;;5.32;;
41546;SDS011;27271;45.412;10.852;2023-02-28T12:12:52;10.80;;;6.18;;
41546;SDS011;27271;45.412;10.852;2023-02-28T12:16:43;9.40;;;5.40;;
41546;SDS011;27271;45.412;10.852;2023-02-28T12:20:14;13.10;;;5.80;;
41546;SDS011;27271;45.412;10.852;2023-02-28T12:27:25;9.00;;;5.60;;
41546;SDS011;27271;45.412;10.852;2023-02-28T12:34:36;9.57;;;5.22;;
41546;SDS011;27271;45.412;10.852;2023-02-28T12:38:19;9.48;;;5.70;;
41546;SDS011;27271;45.412;10.852;2023-02-28T12:41:50;7.78;;;5.50;;
41546;SDS011;27271;45.412;10.852;2023-02-28T12:45:20;10.75;;;6.55;;
41546;SDS011;27271;45.412;10.852;2023-02-28T12:49:05;11.87;;;6.43;;
41546;SDS011;27271;45.412;10.852;2023-02-28T12:59:39;8.02;;;5.85;;
41546;SDS011;27271;45.412;10.852;2023-02-28T13:10:07;12.35;;;6.25;;
41546;SDS011;27271;45.412;10.852;2023-02-28T13:13:30;12.13;;;6.03;;
41546;SDS011;27271;45.412;10.852;2023-02-28T13:16:55;12.73;;;6.30;;
41546;SDS011;27271;45.412;10.852;2023-02-28T13:20:22;14.07;;;6.60;;
41546;SDS011;27271;45.412;10.852;2023-02-28T13:27:23;15.32;;;6.88;;
41546;SDS011;27271;45.412;10.852;2023-02-28T13:34:21;13.63;;;6.53;;
41546;SDS011;27271;45.412;10.852;2023-02-28T13:37:43;11.98;;;6.45;;
41546;SDS011;27271;45.412;10.852;2023-02-28T13:48:27;10.35;;;5.95;;
41546;SDS011;27271;45.412;10.852;2023-02-28T13:51:52;13.73;;;6.45;;
41546;SDS011;27271;45.412;10.852;2023-02-28T13:59:30;11.20;;;6.75;;
41546;SDS011;27271;45.412;10.852;2023-02-28T14:03:05;12.90;;;6.68;;
41546;SDS011;27271;45.412;10.852;2023-02-28T14:06:30;12.70;;;6.47;;
41546;SDS011;27271;45.412;10.852;2023-02-28T14:09:56;12.98;;;6.75;;
41546;SDS011;27271;45.412;10.852;2023-02-28T14:17:12;13.52;;;6.50;;
41546;SDS011;27271;45.412;10.852;2023-02-28T14:20:37;11.13;;;6.00;;
41546;SDS011;27271;45.412;10.852;2023-02-28T14:31:53;14.98;;;6.82;;
41546;SDS011;27271;45.412;10.852;2023-02-28T14:38:50;12.10;;;5.63;;
41546;SDS011;27271;45.412;10.852;2023-02-28T14:42:30;11.83;;;5.83;;
41546;SDS011;27271;45.412;10.852;2023-02-28T14:45:59;11.85;;;6.70;;
41546;SDS011;27271;45.412;10.852;2023-02-28T14:49:26;13.00;;;6.25;;
41546;SDS011;27271;45.412;10.852;2023-02-28T14:53:10;12.13;;;6.15;;
41546;SDS011;27271;45.412;10.852;2023-02-28T14:56:44;11.15;;;5.95;;
41546;SDS011;27271;45.412;10.852;2023-02-28T15:00:12;12.35;;;5.55;;
41546;SDS011;27271;45.412;10.852;2023-02-28T15:03:38;13.00;;;5.97;;
41546;SDS011;27271;45.412;10.852;2023-02-28T15:07:07;16.35;;;5.80;;
41546;SDS011;27271;45.412;10.852;2023-02-28T15:10:35;15.88;;;6.13;;
41546;SDS011;27271;45.412;10.852;2023-02-28T15:13:57;11.82;;;5.85;;
41546;SDS011;27271;45.412;10.852;2023-02-28T15:17:22;10.88;;;5.25;;
41546;SDS011;27271;45.412;10.852;2023-02-28T15:20:46;19.38;;;6.30;;
41546;SDS011;27271;45.412;10.852;2023-02-28T15:28:00;10.13;;;5.68;;
41546;SDS011;27271;45.412;10.852;2023-02-28T15:31:29;12.70;;;5.95;;
41546;SDS011;27271;45.412;10.852;2023-02-28T15:38:50;10.57;;;5.78;;
41546;SDS011;27271;45.412;10.852;2023-02-28T15:42:20;12.05;;;5.40;;
41546;SDS011;27271;45.412;10.852;2023-02-28T15:45:45;14.48;;;7.22;;
41546;SDS011;27271;45.412;10.852;2023-02-28T15:49:18;12.43;;;6.10;;
41546;SDS011;27271;45.412;10.852;2023-02-28T15:52:43;14.25;;;5.05;;
41546;SDS011;27271;45.412;10.852;2023-02-28T15:56:15;10.57;;;5.72;;
41546;SDS011;27271;45.412;10.852;2023-02-28T15:59:42;15.52;;;6.05;;
41546;SDS011;27271;45.412;10.852;2023-02-28T16:03:27;14.80;;;5.63;;
41546;SDS011;27271;45.412;10.852;2023-02-28T16:10:21;12.93;;;6.13;;
41546;SDS011;27271;45.412;10.852;2023-02-28T16:13:47;11.68;;;6.32;;
41546;SDS011;27271;45.412;10.852;2023-02-28T16:17:15;10.07;;;5.97;;
41546;SDS011;27271;45.412;10.852;2023-02-28T16:20:42;13.18;;;6.32;;
41546;SDS011;27271;45.412;10.852;2023-02-28T16:24:06;12.18;;;6.40;;
41546;SDS011;27271;45.412;10.852;2023-02-28T16:27:30;13.13;;;5.60;;
41546;SDS011;27271;45.412;10.852;2023-02-28T16:30:54;12.50;;;6.40;;
41546;SDS011;27271;45.412;10.852;2023-02-28T16:34:16;12.18;;;5.57;;
41546;SDS011;27271;45.412;10.852;2023-02-28T16:37:39;12.93;;;6.25;;
41546;SDS011;27271;45.412;10.852;2023-02-28T16:41:01;15.93;;;7.05;;
41546;SDS011;27271;45.412;10.852;2023-02-28T16:47:50;12.32;;;6.03;;
41546;SDS011;27271;45.412;10.852;2023-02-28T16:51:13;12.45;;;6.00;;
41546;SDS011;27271;45.412;10.852;2023-02-28T16:54:37;20.10;;;6.18;;
41546;SDS011;27271;45.412;10.852;2023-02-28T16:58:00;13.55;;;6.10;;
41546;SDS011;27271;45.412;10.852;2023-02-28T17:01:22;13.40;;;5.50;;
41546;SDS011;27271;45.412;10.852;2023-02-28T17:04:45;19.40;;;6.00;;
41546;SDS011;27271;45.412;10.852;2023-02-28T17:08:08;10.43;;;5.28;;
41546;SDS011;27271;45.412;10.852;2023-02-28T17:11:30;14.63;;;6.55;;
41546;SDS011;27271;45.412;10.852;2023-02-28T17:14:54;15.70;;;6.72;;
41546;SDS011;27271;45.412;10.852;2023-02-28T17:18:19;30.10;;;7.35;;
41546;SDS011;27271;45.412;10.852;2023-02-28T17:21:47;12.88;;;6.45;;
41546;SDS011;27271;45.412;10.852;2023-02-28T17:25:10;11.88;;;6.85;;
41546;SDS011;27271;45.412;10.852;2023-02-28T17:28:35;20.05;;;7.85;;
41546;SDS011;27271;45.412;10.852;2023-02-28T17:32:04;15.05;;;7.65;;
41546;SDS011;27271;45.412;10.852;2023-02-28T17:35:38;15.95;;;8.15;;
41546;SDS011;27271;45.412;10.852;2023-02-28T17:39:00;34.67;;;10.50;;
41546;SDS011;27271;45.412;10.852;2023-02-28T17:42:23;33.33;;;10.93;;
41546;SDS011;27271;45.412;10.852;2023-02-28T17:45:45;23.20;;;7.35;;
41546;SDS011;27271;45.412;10.852;2023-02-28T17:49:08;25.50;;;9.45;;
41546;SDS011;27271;45.412;10.852;2023-02-28T17:52:31;19.83;;;8.35;;
41546;SDS011;27271;45.412;10.852;2023-02-28T17:55:57;17.75;;;10.27;;
41546;SDS011;27271;45.412;10.852;2023-02-28T17:59:19;17.67;;;8.13;;
41546;SDS011;27271;45.412;10.852;2023-02-28T18:02:42;20.08;;;8.43;;
41546;SDS011;27271;45.412;10.852;2023-02-28T18:06:04;19.70;;;8.90;;
41546;SDS011;27271;45.412;10.852;2023-02-28T18:09:27;23.35;;;8.38;;
41546;SDS011;27271;45.412;10.852;2023-02-28T18:12:50;18.38;;;8.25;;
41546;SDS011;27271;45.412;10.852;2023-02-28T18:16:13;18.05;;;9.00;;
41546;SDS011;27271;45.412;10.852;2023-02-28T18:19:36;27.25;;;10.23;;
41546;SDS011;27271;45.412;10.852;2023-02-28T18:22:59;22.33;;;9.80;;
41546;SDS011;27271;45.412;10.852;2023-02-28T18:26:21;18.42;;;9.77;;
41546;SDS011;27271;45.412;10.852;2023-02-28T18:29:44;23.45;;;9.55;;
41546;SDS011;27271;45.412;10.852;2023-02-28T18:33:06;26.30;;;9.32;;
41546;SDS011;27271;45.412;10.852;2023-02-28T18:36:28;21.65;;;10.18;;
41546;SDS011;27271;45.412;10.852;2023-02-28T18:39:50;27.50;;;9.77;;
41546;SDS011;27271;45.412;10.852;2023-02-28T18:43:12;25.23;;;9.80;;
41546;SDS011;27271;45.412;10.852;2023-02-28T18:46:34;21.77;;;9.25;;
41546;SDS011;27271;45.412;10.852;2023-02-28T18:49:56;22.58;;;9.65;;
41546;SDS011;27271;45.412;10.852;2023-02-28T18:53:21;21.40;;;9.00;;
41546;SDS011;27271;45.412;10.852;2023-02-28T18:56:43;24.67;;;10.07;;
41546;SDS011;27271;45.412;10.852;2023-02-28T19:00:05;21.15;;;8.93;;
41546;SDS011;27271;45.412;10.852;2023-02-28T19:03:30;24.60;;;10.82;;
41546;SDS011;27271;45.412;10.852;2023-02-28T19:06:52;27.35;;;10.90;;
41546;SDS011;27271;45.412;10.852;2023-02-28T19:10:14;24.63;;;10.57;;
41546;SDS011;27271;45.412;10.852;2023-02-28T19:13:36;25.15;;;11.48;;
41546;SDS011;27271;45.412;10.852;2023-02-28T19:16:58;30.67;;;11.90;;
41546;SDS011;27271;45.412;10.852;2023-02-28T19:20:20;25.00;;;11.35;;
41546;SDS011;27271;45.412;10.852;2023-02-28T19:23:42;26.20;;;12.00;;
41546;SDS011;27271;45.412;10.852;2023-02-28T19:27:05;28.63;;;12.40;;
41546;SDS011;27271;45.412;10.852;2023-02-28T19:30:27;24.27;;;11.45;;
41546;SDS011;27271;45.412;10.852;2023-02-28T19:33:49;26.42;;;11.55;;
41546;SDS011;27271;45.412;10.852;2023-02-28T19:37:13;74.97;;;34.53;;
41546;SDS011;27271;45.412;10.852;2023-02-28T19:40:35;43.35;;;19.92;;
41546;SDS011;27271;45.412;10.852;2023-02-28T19:43:58;33.92;;;14.07;;
41546;SDS011;27271;45.412;10.852;2023-02-28T19:47:20;30.52;;;12.73;;
41546;SDS011;27271;45.412;10.852;2023-02-28T19:50:42;30.05;;;13.73;;
41546;SDS011;27271;45.412;10.852;2023-02-28T19:54:04;29.80;;;12.75;;
41546;SDS011;27271;45.412;10.852;2023-02-28T19:57:26;34.55;;;13.23;;
41546;SDS011;27271;45.412;10.852;2023-02-28T20:00:48;29.35;;;12.90;;
41546;SDS011;27271;45.412;10.852;2023-02-28T20:04:11;31.25;;;14.57;;
41546;SDS011;27271;45.412;10.852;2023-02-28T20:07:33;31.25;;;13.38;;
41546;SDS011;27271;45.412;10.852;2023-02-28T20:11:00;27.98;;;14.25;;
41546;SDS011;27271;45.412;10.852;2023-02-28T20:14:24;33.65;;;13.88;;
41546;SDS011;27271;45.412;10.852;2023-02-28T20:17:46;32.05;;;13.93;;
41546;SDS011;27271;45.412;10.852;2023-02-28T20:21:08;28.30;;;11.15;;
41546;SDS011;27271;45.412;10.852;2023-02-28T20:24:31;25.70;;;10.98;;
41546;SDS011;27271;45.412;10.852;2023-02-28T20:27:54;20.77;;;9.98;;
41546;SDS011;27271;45.412;10.852;2023-02-28T20:31:17;24.33;;;10.02;;
41546;SDS011;27271;45.412;10.852;2023-02-28T20:34:41;23.25;;;10.23;;
41546;SDS011;27271;45.412;10.852;2023-02-28T20:38:03;21.63;;;9.73;;
41546;SDS011;27271;45.412;10.852;2023-02-28T20:41:25;30.10;;;10.65;;
41546;SDS011;27271;45.412;10.852;2023-02-28T20:44:47;28.85;;;12.20;;
41546;SDS011;27271;45.412;10.852;2023-02-28T20:48:09;29.95;;;12.75;;
41546;SDS011;27271;45.412;10.852;2023-02-28T20:51:31;32.05;;;12.68;;
41546;SDS011;27271;45.412;10.852;2023-02-28T20:54:53;18.17;;;9.43;;
41546;SDS011;27271;45.412;10.852;2023-02-28T20:58:16;22.45;;;9.48;;
41546;SDS011;27271;45.412;10.852;2023-02-28T21:01:40;29.58;;;10.27;;
41546;SDS011;27271;45.412;10.852;2023-02-28T21:05:04;26.80;;;10.43;;
41546;SDS011;27271;45.412;10.852;2023-02-28T21:08:27;24.02;;;10.63;;
41546;SDS011;27271;45.412;10.852;2023-02-28T21:11:51;27.45;;;11.68;;
41546;SDS011;27271;45.412;10.852;2023-02-28T21:15:14;26.95;;;10.60;;
41546;SDS011;27271;45.412;10.852;2023-02-28T21:18:37;23.50;;;10.00;;
41546;SDS011;27271;45.412;10.852;2023-02-28T21:22:00;29.35;;;9.50;;
41546;SDS011;27271;45.412;10.852;2023-02-28T21:25:22;23.48;;;9.98;;
41546;SDS011;27271;45.412;10.852;2023-02-28T21:29:02;18.77;;;9.70;;
41546;SDS011;27271;45.412;10.852;2023-02-28T21:32:24;18.63;;;9.38;;
41546;SDS011;27271;45.412;10.852;2023-02-28T21:35:46;22.98;;;9.98;;
41546;SDS011;27271;45.412;10.852;2023-02-28T21:39:11;23.23;;;10.38;;
41546;SDS011;27271;45.412;10.852;2023-02-28T21:42:38;25.20;;;9.82;;
41546;SDS011;27271;45.412;10.852;2023-02-28T21:46:01;23.27;;;9.77;;
41546;SDS011;27271;45.412;10.852;2023-02-28T21:49:24;18.88;;;9.88;;
41546;SDS011;27271;45.412;10.852;2023-02-28T21:52:46;22.85;;;10.38;;
41546;SDS011;27271;45.412;10.852;2023-02-28T21:56:12;31.10;;;11.93;;
41546;SDS011;27271;45.412;10.852;2023-02-28T21:59:39;19.08;;;9.15;;
41546;SDS011;27271;45.412;10.852;2023-02-28T22:03:01;28.30;;;10.98;;
41546;SDS011;27271;45.412;10.852;2023-02-28T22:06:25;21.95;;;10.00;;